KTMB/TMB METAR and TAF weather

Enter ICAO airport designator
Station Type Date Time Source
KTMB METAR 2019/06/17 04:53 UTC NOAA

KTMB 170453Z AUTO 12005KT 10SM FEW020 26/24 A3003 RMK AO2 SLP168 T02560239 402780228


Station Type Date Time Source
KTMB Decoded METAR 2019/06/17 04:53 UTC NOAA

KENDALL-TAMIAMI EXEC AIRPORT , FL, United States (KTMB) 25-39N 080-26W 2M
Jun 17, 2019 - 12:53 AM EDT / 2019.06.17 0453 UTC
Wind: from the ESE (120 degrees) at 6 MPH (5 KT):0
Visibility: 10 mile(s):0
Sky conditions: mostly clear
Temperature: 78.1 F (25.6 C)
Dew Point: 75.0 F (23.9 C)
Relative Humidity: 90%
Pressure (altimeter): 30.03 in. Hg (1016 hPa)
ob: KTMB 170453Z AUTO 12005KT 10SM FEW020 26/24 A3003 RMK AO2 SLP168 T02560239 402780228
cycle: 5

Station Type Date Time Source
KTMB TAF 2019/06/17 03:22 UTC NOAA

TAF
AMD KTMB 170318Z 1703/1724 07006KT P6SM VCSH FEW030 FEW100 BKN200
FM171000 14008KT P6SM SHRA SCT020 BKN080
FM171400 15012KT P6SM SHRA SCT020 BKN050 PROB30 1714/1719 TSRA BKN035CB

Example: see airport list